Terminal Aerodrome Forecast
Issued by NWS

Home | Current Version | Previous Version | Text Only | Print | Product List | Glossary On
Versions: 1 2 3 4 5 6 7 8 9 10 11 12 13 14 15 16 17 18 19 20
000
FTUS46 KOTX 290526
TAFSFF
TAF
KSFF 290526Z 2906/3006 VRB04KT P6SM -SHRA BKN080 BKN200
     FM290800 07003KT P6SM FEW080
     FM291500 17006KT P6SM SCT150 BKN200
     FM292000 20007G12KT P6SM SCT070 BKN100 BKN200
     FM300400 17004KT P6SM OVC080=

USA.gov is the U.S. government's official web portal to all federal, state and local government web resources and services.